Vero Beach Municipal Airport
KVRB : rendu visible

Aérodrome :











RETROUVEZ-NOUS SUR...

 
LOGIN :

S'inscrire | Disclaimer

   EN    FR    IT 

 









Légende :    VFR   VFR Marginal   IFR   IFR Intensif   IFR Très Intensif
Visi : 
Plafond : 
>= 8 km
>= 3000ft
5 à 8 km
1000 à 3000 ft
1500m à 5 km
500 à 1000 ft
800 à 1500m
200 à 500 ft
< 800m
< 200 ft
Symboles :   Orages  Brouillard  Fortes neiges  Fortes précipitations  Vent > 20 kt






- Altitude de l'aérodrome : 24 ft
- Code IATA : VRB


KVRB - Vero Beach Municipal

DERNIER METAR :
  • 130753Z AUTO 12007KT 10SM CLR 22/20 A3005 RMK AO2 SLP174 T02220200

METARs EXPIRÉS :
  • 130653Z AUTO 12006KT 9SM CLR 22/20 A3006 RMK AO2 SLP178 T02220200
  • 130553Z AUTO 12007KT 10SM BKN090 BKN120 23/21 A3010 RMK AO2 SLP191 60003 T02330211 10233 20206 58016

TAF KVRB
Valide du 13 à 06h jusqu'au 14 à 06h UTC


130542Z 1306/1406 11008KT P6SM SCT018 BKN060
FM131400 15009KT P6SM FEW022 BKN050
FM132200 19008KT P6SM SCT025 BKN060
FM140000 21005KT P6SM SCT030 BKN250



MET'MAP, la Météo Aéronautique d'un coup d'oeil ! - Copyright ORBIFLY Décembre 2007 - Disclaimer

ORBIFLY MET'MAP TEAM :

Programmation & Développement : Alexandra Zaïnal
Sur une idée originale de : Baudouin d'Aumeries
Assistance à la programmation : Marc-Olivier Méhu
Soutien technique & logistique : Manuel Goepfert

Contact : metmap@orbifly.com




SOURCES & CREDITS :

   NOAA       Earth
Advisory